Time;durP1;ratioP1;P1;durP2;ratioP2;P2;SDS_P1;SDS_P2;PMS_P1;PMS_P2;Temp;Humidity;BMP_temperature;BMP_pressure;BME280_temperature;BME280_humidity;BME280_pressure;Samples;Min_cycle;Max_cycle;Signal;HPM_P1;HPM_P2
2022/10/29 00:02:25;;;;;;;140.80;76.33;;;;;;;;;;4935885;28;20203;-35
2022/10/29 00:04:51;;;;;;;130.83;70.63;;;;;;;;;;4939401;28;20186;-34
2022/10/29 00:07:17;;;;;;;129.37;74.53;;;;;;;;;;4935190;28;20270;-35
2022/10/29 00:09:43;;;;;;;133.10;72.90;;;;;;;;;;4937683;28;20817;-35
2022/10/29 00:12:10;;;;;;;136.13;74.13;;;;;;;;;;4939210;28;20276;-38
2022/10/29 00:14:36;;;;;;;133.83;72.30;;;;;;;;;;4935206;28;20888;-36
2022/10/29 00:17:02;;;;;;;110.73;63.37;;;;;;;;;;4939616;28;21262;-35
2022/10/29 00:19:28;;;;;;;122.27;65.77;;;;;;;;;;4934809;28;20627;-36
2022/10/29 00:21:54;;;;;;;142.87;76.83;;;;;;;;;;4936061;28;20332;-36
2022/10/29 00:24:21;;;;;;;117.93;66.43;;;;;;;;;;4942012;28;20512;-35
2022/10/29 00:26:47;;;;;;;136.60;74.90;;;;;;;;;;4937056;28;20193;-36
2022/10/29 00:29:13;;;;;;;133.40;72.63;;;;;;;;;;4936972;28;20658;-36
2022/10/29 00:31:39;;;;;;;117.67;63.57;;;;;;;;;;4939982;28;20183;-36
2022/10/29 00:34:05;;;;;;;114.33;60.63;;;;;;;;;;4939792;28;20194;-36
2022/10/29 00:36:31;;;;;;;110.20;60.30;;;;;;;;;;4935226;28;20328;-36
2022/10/29 00:38:57;;;;;;;116.67;62.40;;;;;;;;;;4937778;28;20532;-37
2022/10/29 00:41:25;;;;;;;113.90;59.47;;;;;;;;;;4939491;28;20282;-36
2022/10/29 00:44:10;;;;;;;99.77;56.70;;;;;;;;;;4936238;28;20294;-36
2022/10/29 00:46:36;;;;;;;106.40;59.00;;;;;;;;;;4933533;28;20598;-35
2022/10/29 00:49:02;;;;;;;104.03;57.80;;;;;;;;;;4933775;28;20187;-36
2022/10/29 00:51:29;;;;;;;98.13;55.30;;;;;;;;;;4937185;28;20191;-35
2022/10/29 00:53:57;;;;;;;100.73;56.30;;;;;;;;;;4931663;28;20622;-35
2022/10/29 00:56:24;;;;;;;93.63;53.97;;;;;;;;;;4939628;28;20183;-35
2022/10/29 00:58:50;;;;;;;107.70;57.00;;;;;;;;;;4938043;28;20189;-36
2022/10/29 01:01:16;;;;;;;99.43;56.07;;;;;;;;;;4936734;28;20570;-36
2022/10/29 01:03:42;;;;;;;97.97;55.20;;;;;;;;;;4930958;28;20678;-36
2022/10/29 01:06:08;;;;;;;100.93;54.23;;;;;;;;;;4936222;28;20175;-36
2022/10/29 01:08:35;;;;;;;93.73;55.60;;;;;;;;;;4940061;28;20212;-35
2022/10/29 01:11:19;;;;;;;83.73;52.83;;;;;;;;;;4944179;28;20765;-36
2022/10/29 01:14:11;;;;;;;91.73;53.13;;;;;;;;;;4940625;28;20249;-35
2022/10/29 01:16:43;;;;;;;97.63;54.00;;;;;;;;;;4936796;28;20201;-36
2022/10/29 01:19:15;;;;;;;91.63;53.20;;;;;;;;;;4937906;28;20213;-35
2022/10/29 01:21:56;;;;;;;96.93;54.63;;;;;;;;;;4935388;28;20198;-36
2022/10/29 01:24:40;;;;;;;98.03;54.23;;;;;;;;;;4939091;28;20190;-35
2022/10/29 01:27:30;;;;;;;90.67;54.17;;;;;;;;;;4938554;28;20178;-35
2022/10/29 01:30:03;;;;;;;90.37;52.70;;;;;;;;;;4938752;28;20701;-36
2022/10/29 01:32:53;;;;;;;96.10;55.37;;;;;;;;;;4938043;28;20240;-36
2022/10/29 01:35:32;;;;;;;81.13;47.73;;;;;;;;;;4932526;28;20194;-36
2022/10/29 01:38:17;;;;;;;84.70;46.40;;;;;;;;;;4940040;28;20198;-36
2022/10/29 01:40:58;;;;;;;76.17;43.97;;;;;;;;;;4938418;28;20214;-35
2022/10/29 01:43:45;;;;;;;82.17;48.10;;;;;;;;;;4936165;28;20703;-35
2022/10/29 01:46:17;;;;;;;70.90;41.77;;;;;;;;;;4939285;28;20469;-35
2022/10/29 01:48:45;;;;;;;82.00;46.90;;;;;;;;;;4936412;28;20796;-36
2022/10/29 01:51:17;;;;;;;79.00;46.53;;;;;;;;;;4936136;28;20278;-35
2022/10/29 01:53:43;;;;;;;87.57;49.83;;;;;;;;;;4929652;28;20178;-35
2022/10/29 01:56:09;;;;;;;92.73;50.90;;;;;;;;;;4936411;28;20182;-35
2022/10/29 01:58:36;;;;;;;85.57;50.43;;;;;;;;;;4936819;28;20945;-35
2022/10/29 02:01:18;;;;;;;87.67;50.77;;;;;;;;;;4934597;28;20304;-36
2022/10/29 02:03:51;;;;;;;87.40;49.13;;;;;;;;;;4929919;28;20198;-36
2022/10/29 02:06:41;;;;;;;93.93;50.80;;;;;;;;;;4933204;28;20427;-35
2022/10/29 02:09:19;;;;;;;97.77;52.70;;;;;;;;;;4928415;28;20605;-35
2022/10/29 02:11:48;;;;;;;77.73;44.20;;;;;;;;;;4929435;28;20293;-35
2022/10/29 02:14:21;;;;;;;85.60;45.90;;;;;;;;;;4934072;28;20191;-36
2022/10/29 02:16:47;;;;;;;74.53;41.80;;;;;;;;;;4932800;28;20300;-36
2022/10/29 02:19:13;;;;;;;72.00;40.30;;;;;;;;;;4931899;28;20189;-35
2022/10/29 02:21:41;;;;;;;69.90;41.23;;;;;;;;;;4938203;28;20202;-35
2022/10/29 02:24:07;;;;;;;75.97;42.50;;;;;;;;;;4938036;28;20173;-35
2022/10/29 02:26:33;;;;;;;74.13;40.40;;;;;;;;;;4933329;28;20537;-36
2022/10/29 02:29:01;;;;;;;72.03;38.90;;;;;;;;;;4933000;28;20561;-36
2022/10/29 02:31:27;;;;;;;62.77;38.60;;;;;;;;;;4936671;28;20178;-36
2022/10/29 02:33:53;;;;;;;67.53;38.20;;;;;;;;;;4931894;28;20419;-35
2022/10/29 02:36:19;;;;;;;63.37;35.53;;;;;;;;;;4929268;28;20785;-36
2022/10/29 02:38:45;;;;;;;59.87;33.37;;;;;;;;;;4930441;28;20188;-35
2022/10/29 02:41:11;;;;;;;54.13;31.87;;;;;;;;;;4937813;28;20198;-36
2022/10/29 02:43:37;;;;;;;54.97;31.30;;;;;;;;;;4929551;28;20230;-36
2022/10/29 02:46:20;;;;;;;50.33;29.50;;;;;;;;;;4928098;28;20816;-35
2022/10/29 02:48:46;;;;;;;51.90;30.53;;;;;;;;;;4939990;28;20183;-36
2022/10/29 02:51:12;;;;;;;51.50;29.77;;;;;;;;;;4934653;28;20194;-34
2022/10/29 02:53:39;;;;;;;52.27;30.20;;;;;;;;;;4935949;28;20190;-35
2022/10/29 02:56:05;;;;;;;48.80;29.40;;;;;;;;;;4934447;28;20561;-35
2022/10/29 02:58:31;;;;;;;54.33;29.83;;;;;;;;;;4930628;28;20747;-35
2022/10/29 03:00:57;;;;;;;53.87;30.23;;;;;;;;;;4927623;28;20214;-35
2022/10/29 03:03:23;;;;;;;50.00;29.73;;;;;;;;;;4937254;28;20729;-35
2022/10/29 03:05:49;;;;;;;50.10;28.77;;;;;;;;;;4938680;28;22090;-35
2022/10/29 03:08:16;;;;;;;47.13;26.37;;;;;;;;;;4937586;28;20203;-35
2022/10/29 03:10:42;;;;;;;56.23;29.90;;;;;;;;;;4935236;28;20182;-35
2022/10/29 03:13:08;;;;;;;43.67;26.77;;;;;;;;;;4934069;28;20183;-35
2022/10/29 03:15:35;;;;;;;41.23;26.00;;;;;;;;;;4933243;28;21009;-35
2022/10/29 03:18:01;;;;;;;44.00;26.93;;;;;;;;;;4931893;28;20225;-35
2022/10/29 03:20:27;;;;;;;48.33;28.10;;;;;;;;;;4936600;28;20285;-35
2022/10/29 03:22:53;;;;;;;41.27;25.00;;;;;;;;;;4931913;28;21005;-36
2022/10/29 03:25:19;;;;;;;43.30;26.50;;;;;;;;;;4934431;28;22193;-35
2022/10/29 03:27:45;;;;;;;41.67;25.90;;;;;;;;;;4935313;28;20707;-36
2022/10/29 03:30:16;;;;;;;43.37;23.63;;;;;;;;;;4929569;28;20185;-36
2022/10/29 03:32:43;;;;;;;41.57;23.57;;;;;;;;;;4934848;28;20963;-35
2022/10/29 03:35:09;;;;;;;35.27;21.40;;;;;;;;;;4947940;28;20183;-35
2022/10/29 03:37:35;;;;;;;38.87;21.40;;;;;;;;;;4933815;28;20186;-35
2022/10/29 03:40:02;;;;;;;31.33;19.67;;;;;;;;;;4935875;28;20190;-36
2022/10/29 03:42:30;;;;;;;32.07;18.33;;;;;;;;;;4938788;28;20195;-36
2022/10/29 03:44:57;;;;;;;27.40;16.60;;;;;;;;;;4934311;28;21037;-35
2022/10/29 03:47:23;;;;;;;27.37;18.37;;;;;;;;;;4935325;28;20898;-36
2022/10/29 03:49:49;;;;;;;30.03;17.43;;;;;;;;;;4933524;28;20206;-35
2022/10/29 03:52:15;;;;;;;23.87;15.80;;;;;;;;;;4933327;28;20193;-35
2022/10/29 03:54:41;;;;;;;25.90;15.07;;;;;;;;;;4939456;28;20190;-36
2022/10/29 03:57:07;;;;;;;29.40;15.67;;;;;;;;;;4942114;28;20205;-35
2022/10/29 03:59:33;;;;;;;31.60;16.90;;;;;;;;;;4932995;28;20285;-36
2022/10/29 04:02:00;;;;;;;31.30;17.40;;;;;;;;;;4938667;28;20581;-36
2022/10/29 04:04:26;;;;;;;27.33;15.53;;;;;;;;;;4943402;28;20214;-35
2022/10/29 04:06:52;;;;;;;22.97;15.87;;;;;;;;;;4939985;28;20174;-35
2022/10/29 04:09:18;;;;;;;27.37;15.60;;;;;;;;;;4934890;28;20619;-35
2022/10/29 04:11:44;;;;;;;22.67;14.63;;;;;;;;;;4942247;28;20230;-35
2022/10/29 04:14:10;;;;;;;25.60;14.00;;;;;;;;;;4939435;28;20183;-35
2022/10/29 04:16:36;;;;;;;23.00;14.40;;;;;;;;;;4933892;28;20640;-36
2022/10/29 04:19:03;;;;;;;20.57;13.63;;;;;;;;;;4938868;28;20181;-35
2022/10/29 04:21:29;;;;;;;23.13;13.73;;;;;;;;;;4934057;28;20289;-35
2022/10/29 04:23:55;;;;;;;22.97;14.37;;;;;;;;;;4931076;28;20471;-36
2022/10/29 04:26:21;;;;;;;25.17;13.83;;;;;;;;;;4937053;28;20184;-35
2022/10/29 04:28:48;;;;;;;24.73;15.13;;;;;;;;;;4939498;28;20685;-36
2022/10/29 04:31:14;;;;;;;25.93;15.37;;;;;;;;;;4936138;28;20194;-34
2022/10/29 04:33:40;;;;;;;22.67;15.23;;;;;;;;;;4931439;28;20179;-35
2022/10/29 04:36:07;;;;;;;26.87;15.93;;;;;;;;;;4929114;28;20229;-36
2022/10/29 04:38:33;;;;;;;25.77;15.77;;;;;;;;;;4931077;28;20175;-36
2022/10/29 04:41:00;;;;;;;25.30;15.13;;;;;;;;;;4932564;28;20543;-36
2022/10/29 04:43:26;;;;;;;27.70;16.53;;;;;;;;;;4934790;28;20282;-36
2022/10/29 04:45:53;;;;;;;27.53;16.77;;;;;;;;;;4935652;28;20370;-36
2022/10/29 04:48:19;;;;;;;28.50;17.33;;;;;;;;;;4933623;28;20184;-37
2022/10/29 04:50:45;;;;;;;27.70;17.47;;;;;;;;;;4932416;28;20394;-36
2022/10/29 04:53:11;;;;;;;24.23;16.80;;;;;;;;;;4933223;28;20274;-36
2022/10/29 04:55:38;;;;;;;26.07;16.73;;;;;;;;;;4935931;28;20576;-36
2022/10/29 04:58:05;;;;;;;25.67;16.53;;;;;;;;;;4933233;28;20222;-36
2022/10/29 05:00:32;;;;;;;25.90;17.03;;;;;;;;;;4932961;28;20336;-36
2022/10/29 05:02:58;;;;;;;27.73;17.43;;;;;;;;;;4934747;28;20917;-36
2022/10/29 05:05:24;;;;;;;26.03;16.60;;;;;;;;;;4937089;28;20175;-36
2022/10/29 05:07:56;;;;;;;27.57;17.40;;;;;;;;;;4937571;28;21132;-36
2022/10/29 05:10:22;;;;;;;25.73;15.97;;;;;;;;;;4932460;28;20183;-36
2022/10/29 05:12:48;;;;;;;27.93;16.03;;;;;;;;;;4938847;28;20186;-36
2022/10/29 05:15:14;;;;;;;28.73;15.73;;;;;;;;;;4935496;28;20878;-36
2022/10/29 05:17:40;;;;;;;29.90;16.13;;;;;;;;;;4939487;28;20180;-36
2022/10/29 05:20:06;;;;;;;28.50;16.07;;;;;;;;;;4929593;28;20302;-36
2022/10/29 05:22:32;;;;;;;24.43;15.27;;;;;;;;;;4931591;28;20206;-36
2022/10/29 05:24:58;;;;;;;23.27;15.07;;;;;;;;;;4933769;28;20191;-36
2022/10/29 05:27:24;;;;;;;26.13;15.03;;;;;;;;;;4939931;28;20179;-35
2022/10/29 05:29:50;;;;;;;27.87;15.93;;;;;;;;;;4937323;28;20194;-36
2022/10/29 05:32:16;;;;;;;22.10;13.67;;;;;;;;;;4936217;28;20185;-36
2022/10/29 05:34:42;;;;;;;24.93;14.07;;;;;;;;;;4934058;28;20708;-35
2022/10/29 05:37:08;;;;;;;27.47;14.93;;;;;;;;;;4936089;28;20178;-37
2022/10/29 05:39:35;;;;;;;19.17;12.90;;;;;;;;;;4933137;28;20183;-36
2022/10/29 05:42:01;;;;;;;22.20;13.13;;;;;;;;;;4938758;28;20279;-37
2022/10/29 05:44:27;;;;;;;26.10;13.33;;;;;;;;;;4935560;28;20266;-35
2022/10/29 05:46:53;;;;;;;26.47;14.77;;;;;;;;;;4931069;28;20183;-36
2022/10/29 05:49:19;;;;;;;21.13;13.23;;;;;;;;;;4930448;28;20514;-35
2022/10/29 05:51:45;;;;;;;22.93;14.07;;;;;;;;;;4938302;28;20194;-35
2022/10/29 05:54:11;;;;;;;21.50;13.67;;;;;;;;;;4935478;28;20596;-36
2022/10/29 05:56:37;;;;;;;21.93;13.53;;;;;;;;;;4936816;28;20178;-36
2022/10/29 05:59:03;;;;;;;21.43;13.03;;;;;;;;;;4943548;28;20183;-36
2022/10/29 06:01:29;;;;;;;21.43;13.07;;;;;;;;;;4940369;28;20300;-35
2022/10/29 06:03:55;;;;;;;21.33;12.17;;;;;;;;;;4937436;28;20175;-36
2022/10/29 06:06:21;;;;;;;18.77;13.60;;;;;;;;;;4935692;28;20179;-35
2022/10/29 06:08:47;;;;;;;21.63;14.03;;;;;;;;;;4939812;28;20707;-36
2022/10/29 06:11:13;;;;;;;25.63;14.20;;;;;;;;;;4940192;28;20187;-35
2022/10/29 06:13:39;;;;;;;22.90;14.87;;;;;;;;;;4939049;28;20178;-36
2022/10/29 06:16:06;;;;;;;23.67;15.27;;;;;;;;;;4937301;28;20190;-36
2022/10/29 06:18:32;;;;;;;22.27;14.47;;;;;;;;;;4942544;28;20175;-36
2022/10/29 06:20:59;;;;;;;25.73;16.10;;;;;;;;;;4937487;28;20481;-36
2022/10/29 06:23:25;;;;;;;26.60;16.07;;;;;;;;;;4941455;28;20942;-36
2022/10/29 06:25:51;;;;;;;26.30;15.63;;;;;;;;;;4939434;28;20172;-36
2022/10/29 06:28:18;;;;;;;27.13;15.93;;;;;;;;;;4935036;28;20178;-36
2022/10/29 06:30:48;;;;;;;25.00;15.60;;;;;;;;;;4935208;28;20175;-36
2022/10/29 06:33:14;;;;;;;26.33;16.00;;;;;;;;;;4937811;28;20799;-36
2022/10/29 06:35:40;;;;;;;26.23;15.80;;;;;;;;;;4941055;28;20217;-36
2022/10/29 06:38:06;;;;;;;23.20;14.43;;;;;;;;;;4935545;28;20179;-36
2022/10/29 06:40:32;;;;;;;23.70;14.60;;;;;;;;;;4933844;28;20187;-35
2022/10/29 06:43:05;;;;;;;31.37;15.13;;;;;;;;;;4939932;28;20489;-36
2022/10/29 06:45:31;;;;;;;22.33;14.03;;;;;;;;;;4933827;28;20264;-36
2022/10/29 06:47:57;;;;;;;25.00;14.47;;;;;;;;;;4931274;28;20178;-36
2022/10/29 06:50:23;;;;;;;22.40;13.93;;;;;;;;;;4933527;28;20205;-36
2022/10/29 06:53:03;;;;;;;21.93;14.43;;;;;;;;;;4933898;28;20537;-36
2022/10/29 06:55:29;;;;;;;23.17;13.90;;;;;;;;;;4935554;28;20186;-36
2022/10/29 06:57:56;;;;;;;21.23;13.47;;;;;;;;;;4936059;28;20399;-36
2022/10/29 07:00:23;;;;;;;26.17;13.40;;;;;;;;;;4932976;28;22342;-37
2022/10/29 07:02:49;;;;;;;25.57;13.17;;;;;;;;;;4937374;28;20324;-36
2022/10/29 07:05:15;;;;;;;19.70;12.07;;;;;;;;;;4938107;28;20217;-35
2022/10/29 07:07:41;;;;;;;17.20;11.20;;;;;;;;;;4936478;28;20623;-35
2022/10/29 07:10:07;;;;;;;22.37;11.17;;;;;;;;;;4941139;28;20388;-36
2022/10/29 07:12:39;;;;;;;17.10;11.13;;;;;;;;;;4934941;28;20741;-36
2022/10/29 07:15:05;;;;;;;26.70;11.53;;;;;;;;;;4934604;28;20182;-36
2022/10/29 07:17:31;;;;;;;21.90;11.03;;;;;;;;;;4936590;28;20185;-37
2022/10/29 07:19:57;;;;;;;20.03;10.63;;;;;;;;;;4939932;28;20190;-36
2022/10/29 07:22:23;;;;;;;21.10;10.57;;;;;;;;;;4936735;28;20210;-36
2022/10/29 07:24:49;;;;;;;19.77;10.73;;;;;;;;;;4938431;28;20170;-36
2022/10/29 07:27:16;;;;;;;25.27;10.97;;;;;;;;;;4936830;28;20183;-37
2022/10/29 07:29:42;;;;;;;19.80;10.57;;;;;;;;;;4935511;28;20634;-37
2022/10/29 07:32:08;;;;;;;23.07;10.50;;;;;;;;;;4937303;28;20496;-37
2022/10/29 07:34:34;;;;;;;21.07;10.67;;;;;;;;;;4941425;28;20251;-37
2022/10/29 07:37:00;;;;;;;17.13;9.67;;;;;;;;;;4944099;28;20400;-37
2022/10/29 07:39:26;;;;;;;18.53;9.93;;;;;;;;;;4939453;28;20726;-37
2022/10/29 07:41:52;;;;;;;19.90;10.13;;;;;;;;;;4937628;28;20250;-37
2022/10/29 07:44:18;;;;;;;17.00;9.87;;;;;;;;;;4938809;28;20193;-37
2022/10/29 07:46:44;;;;;;;18.00;10.27;;;;;;;;;;4933248;28;20199;-37
2022/10/29 07:49:10;;;;;;;16.30;9.87;;;;;;;;;;4935291;28;20183;-37
2022/10/29 07:51:36;;;;;;;21.70;9.83;;;;;;;;;;4939706;28;21039;-36
2022/10/29 07:54:02;;;;;;;17.17;8.70;;;;;;;;;;4935584;28;20186;-37
2022/10/29 07:56:28;;;;;;;19.80;9.37;;;;;;;;;;4935766;28;20179;-37
2022/10/29 07:58:54;;;;;;;18.03;10.33;;;;;;;;;;4940372;28;20643;-37
2022/10/29 08:01:20;;;;;;;23.17;8.80;;;;;;;;;;4935992;28;20639;-37
2022/10/29 08:03:49;;;;;;;15.80;9.37;;;;;;;;;;4929594;28;20654;-36
2022/10/29 08:06:15;;;;;;;19.10;9.57;;;;;;;;;;4936982;28;20229;-38
2022/10/29 08:08:41;;;;;;;18.80;8.83;;;;;;;;;;4939545;28;20281;-37
2022/10/29 08:11:07;;;;;;;16.03;8.93;;;;;;;;;;4930210;28;20193;-37
2022/10/29 08:13:34;;;;;;;19.17;9.17;;;;;;;;;;4927963;28;20693;-37
2022/10/29 08:16:00;;;;;;;78.77;14.90;;;;;;;;;;4931498;28;20190;-37
2022/10/29 08:18:26;;;;;;;14.93;9.33;;;;;;;;;;4930111;28;20562;-37
2022/10/29 08:20:52;;;;;;;20.93;10.03;;;;;;;;;;4935576;28;20183;-37
2022/10/29 08:23:18;;;;;;;16.77;9.23;;;;;;;;;;4937473;28;20206;-36
2022/10/29 08:25:45;;;;;;;17.60;10.23;;;;;;;;;;4927245;28;20326;-37
2022/10/29 08:28:12;;;;;;;21.13;10.93;;;;;;;;;;4937782;28;20194;-37
2022/10/29 08:30:38;;;;;;;21.60;11.63;;;;;;;;;;4932602;28;20175;-37
2022/10/29 08:33:05;;;;;;;22.37;11.57;;;;;;;;;;4927898;28;20281;-37
2022/10/29 08:35:31;;;;;;;17.67;10.47;;;;;;;;;;4934175;28;20238;-37
2022/10/29 08:37:57;;;;;;;19.60;10.50;;;;;;;;;;4935110;28;20190;-37
2022/10/29 08:40:23;;;;;;;19.23;10.77;;;;;;;;;;4933668;28;20185;-37
2022/10/29 08:42:49;;;;;;;21.37;12.27;;;;;;;;;;4931105;28;20286;-37
2022/10/29 08:45:19;;;;;;;27.50;14.50;;;;;;;;;;4940182;28;20221;-37
2022/10/29 08:48:05;;;;;;;22.53;13.40;;;;;;;;;;4934219;28;20423;-37
2022/10/29 08:50:39;;;;;;;30.97;16.57;;;;;;;;;;4924616;28;20601;-36
2022/10/29 08:53:07;;;;;;;32.00;19.03;;;;;;;;;;4928675;28;20389;-37
2022/10/29 08:55:35;;;;;;;34.47;20.60;;;;;;;;;;4926256;28;20274;-37
2022/10/29 08:58:18;;;;;;;37.17;22.67;;;;;;;;;;4927063;28;20195;-37
2022/10/29 09:00:45;;;;;;;44.00;25.17;;;;;;;;;;4926076;28;20276;-36
2022/10/29 09:03:11;;;;;;;44.50;24.20;;;;;;;;;;4930114;28;20660;-37
2022/10/29 09:05:58;;;;;;;50.77;25.67;;;;;;;;;;4931314;28;20183;-37
2022/10/29 09:08:30;;;;;;;41.67;24.80;;;;;;;;;;4907273;28;20194;-36
2022/10/29 09:10:57;;;;;;;39.40;23.70;;;;;;;;;;4936793;28;20183;-37
2022/10/29 09:13:23;;;;;;;37.23;22.80;;;;;;;;;;4939788;28;20580;-37
2022/10/29 09:15:56;;;;;;;38.93;22.97;;;;;;;;;;4933891;28;20245;-37
2022/10/29 09:18:30;;;;;;;41.23;25.27;;;;;;;;;;4935471;28;20575;-37
2022/10/29 09:20:56;;;;;;;47.63;26.80;;;;;;;;;;4938161;28;20429;-37
2022/10/29 09:23:37;;;;;;;43.37;26.73;;;;;;;;;;4939656;28;20281;-37
2022/10/29 09:26:05;;;;;;;46.60;27.77;;;;;;;;;;4938656;28;20233;-37
2022/10/29 09:28:37;;;;;;;46.23;27.50;;;;;;;;;;4940730;28;20914;-36
2022/10/29 09:31:09;;;;;;;47.87;27.93;;;;;;;;;;4938067;28;20194;-37
2022/10/29 09:33:36;;;;;;;47.67;29.93;;;;;;;;;;4940321;28;20181;-37
2022/10/29 09:36:11;;;;;;;48.43;28.57;;;;;;;;;;4934759;28;20202;-37
2022/10/29 09:38:40;;;;;;;50.97;29.27;;;;;;;;;;4937273;28;20638;-37
2022/10/29 09:41:10;;;;;;;51.03;29.93;;;;;;;;;;4940591;28;20302;-37
2022/10/29 09:43:45;;;;;;;50.77;30.53;;;;;;;;;;4938044;28;20589;-37
2022/10/29 09:46:17;;;;;;;53.30;30.00;;;;;;;;;;4937883;28;20404;-36
2022/10/29 09:49:02;;;;;;;48.60;28.20;;;;;;;;;;4938840;28;20175;-36
2022/10/29 09:51:30;;;;;;;45.33;29.17;;;;;;;;;;4946361;28;20485;-36
2022/10/29 09:53:57;;;;;;;50.67;28.40;;;;;;;;;;4934530;28;20193;-37
2022/10/29 09:56:23;;;;;;;55.87;29.70;;;;;;;;;;4933477;28;20580;-37
2022/10/29 09:58:52;;;;;;;48.70;28.47;;;;;;;;;;4944119;28;20178;-36
2022/10/29 10:01:18;;;;;;;47.13;27.30;;;;;;;;;;4927174;28;20206;-37
2022/10/29 10:03:52;;;;;;;41.57;26.63;;;;;;;;;;4925956;28;20593;-37
2022/10/29 10:06:18;;;;;;;47.83;29.30;;;;;;;;;;4933502;28;20371;-35
2022/10/29 10:09:01;;;;;;;49.33;28.63;;;;;;;;;;4924540;28;20195;-35
2022/10/29 10:11:35;;;;;;;45.00;28.00;;;;;;;;;;4925655;28;20179;-36
2022/10/29 10:14:04;;;;;;;46.87;28.67;;;;;;;;;;4927655;28;20194;-36
2022/10/29 10:16:32;;;;;;;52.53;31.73;;;;;;;;;;4922604;28;20637;-36
2022/10/29 10:18:59;;;;;;;49.30;29.97;;;;;;;;;;4928007;28;20727;-36
2022/10/29 10:21:29;;;;;;;46.43;28.17;;;;;;;;;;4925966;28;20263;-36
2022/10/29 10:23:56;;;;;;;44.77;28.63;;;;;;;;;;4926930;28;20175;-36
2022/10/29 10:26:33;;;;;;;48.87;29.20;;;;;;;;;;4920956;28;20180;-36
2022/10/29 10:29:17;;;;;;;47.97;28.63;;;;;;;;;;4929652;28;20662;-36
2022/10/29 10:31:50;;;;;;;61.83;32.47;;;;;;;;;;4928680;28;21681;-36
2022/10/29 10:34:16;;;;;;;48.43;31.03;;;;;;;;;;4927882;28;20194;-36
2022/10/29 10:36:44;;;;;;;50.33;28.53;;;;;;;;;;4927904;28;20525;-36
2022/10/29 10:39:20;;;;;;;92.93;42.57;;;;;;;;;;4934569;28;20270;-36
2022/10/29 10:41:48;;;;;;;50.63;29.70;;;;;;;;;;4929247;28;20756;-36
2022/10/29 10:44:14;;;;;;;47.43;28.13;;;;;;;;;;4925352;28;21020;-36
2022/10/29 10:46:42;;;;;;;46.43;28.20;;;;;;;;;;4925741;28;20194;-36
2022/10/29 10:49:11;;;;;;;86.50;30.50;;;;;;;;;;4926181;28;20481;-37
2022/10/29 10:51:38;;;;;;;48.10;27.93;;;;;;;;;;4927209;28;20186;-37
2022/10/29 10:54:20;;;;;;;47.57;27.97;;;;;;;;;;4930600;28;20738;-36
2022/10/29 10:57:16;;;;;;;43.13;26.93;;;;;;;;;;4922481;28;20257;-36
2022/10/29 10:59:51;;;;;;;46.07;27.20;;;;;;;;;;4919795;28;20428;-36
2022/10/29 11:02:25;;;;;;;47.10;27.00;;;;;;;;;;4927996;28;20628;-36
2022/10/29 11:05:02;;;;;;;47.83;26.70;;;;;;;;;;4925099;28;20171;-36
2022/10/29 11:07:32;;;;;;;44.50;27.37;;;;;;;;;;4923483;28;20849;-37
2022/10/29 11:09:59;;;;;;;40.43;25.13;;;;;;;;;;4925383;28;20559;-37
2022/10/29 11:12:29;;;;;;;41.03;24.67;;;;;;;;;;4923929;28;20190;-37
2022/10/29 11:14:59;;;;;;;41.03;25.57;;;;;;;;;;4926103;28;20731;-37
2022/10/29 11:17:36;;;;;;;39.77;25.07;;;;;;;;;;4925909;28;20250;-36
2022/10/29 11:20:06;;;;;;;46.17;26.03;;;;;;;;;;4928136;28;20174;-36
2022/10/29 11:22:38;;;;;;;37.80;23.20;;;;;;;;;;4924780;28;21109;-36
2022/10/29 11:25:07;;;;;;;35.80;22.87;;;;;;;;;;4923285;28;20255;-36
2022/10/29 11:27:39;;;;;;;41.03;23.53;;;;;;;;;;4925910;28;20252;-36
2022/10/29 11:30:13;;;;;;;38.07;23.53;;;;;;;;;;4924429;28;20198;-36
2022/10/29 11:32:58;;;;;;;39.60;23.67;;;;;;;;;;4925188;28;20686;-36
2022/10/29 11:35:42;;;;;;;35.80;23.20;;;;;;;;;;4926438;28;20293;-36
2022/10/29 11:38:18;;;;;;;43.20;23.57;;;;;;;;;;4924569;28;20269;-36
2022/10/29 11:40:55;;;;;;;38.17;20.87;;;;;;;;;;4924994;28;20394;-36
2022/10/29 11:43:21;;;;;;;36.23;21.73;;;;;;;;;;4928670;28;20429;-36
2022/10/29 11:45:47;;;;;;;39.67;21.53;;;;;;;;;;4924625;28;20179;-36
2022/10/29 11:48:25;;;;;;;36.30;21.83;;;;;;;;;;4918813;28;20187;-37
2022/10/29 11:51:02;;;;;;;35.20;21.20;;;;;;;;;;4919716;28;20180;-36
2022/10/29 11:53:28;;;;;;;36.00;21.40;;;;;;;;;;4925887;28;20189;-37
2022/10/29 11:56:00;;;;;;;36.50;20.60;;;;;;;;;;4923166;28;20554;-36
2022/10/29 11:58:34;;;;;;;38.40;22.43;;;;;;;;;;4929631;28;20659;-36
2022/10/29 12:01:09;;;;;;;30.77;17.53;;;;;;;;;;4934319;28;20187;-36
2022/10/29 12:03:35;;;;;;;39.40;18.93;;;;;;;;;;4932983;28;20851;-36
2022/10/29 12:06:13;;;;;;;30.83;19.43;;;;;;;;;;4925598;28;20832;-36
2022/10/29 12:08:48;;;;;;;24.77;17.20;;;;;;;;;;4926698;28;20182;-36
2022/10/29 12:11:19;;;;;;;22.73;16.17;;;;;;;;;;4925368;28;20178;-36
2022/10/29 12:13:54;;;;;;;26.23;15.70;;;;;;;;;;4923977;28;20428;-36
2022/10/29 12:16:23;;;;;;;33.63;19.33;;;;;;;;;;4930632;28;20197;-37
2022/10/29 12:19:00;;;;;;;26.13;16.73;;;;;;;;;;4925273;28;20175;-36
2022/10/29 12:21:30;;;;;;;29.17;18.03;;;;;;;;;;4922858;28;20206;-37
2022/10/29 12:23:59;;;;;;;33.20;18.13;;;;;;;;;;4928582;28;20241;-36
2022/10/29 12:26:27;;;;;;;32.07;18.93;;;;;;;;;;4925849;28;20883;-36
2022/10/29 12:28:59;;;;;;;32.50;19.07;;;;;;;;;;4925585;28;20186;-36
2022/10/29 12:31:29;;;;;;;31.97;18.70;;;;;;;;;;4926429;28;20175;-36
2022/10/29 12:33:55;;;;;;;27.07;15.27;;;;;;;;;;4925308;28;20614;-36
2022/10/29 12:36:28;;;;;;;27.40;16.20;;;;;;;;;;4922944;28;20209;-36
2022/10/29 12:38:55;;;;;;;26.50;15.63;;;;;;;;;;4929561;28;20178;-38
2022/10/29 12:41:24;;;;;;;22.63;13.90;;;;;;;;;;4940160;28;20178;-37
2022/10/29 12:43:50;;;;;;;25.37;16.03;;;;;;;;;;4934871;28;20171;-36
2022/10/29 12:46:19;;;;;;;27.03;16.00;;;;;;;;;;4938591;28;20327;-36
2022/10/29 12:48:50;;;;;;;26.77;15.83;;;;;;;;;;4941374;28;20769;-36
2022/10/29 12:51:19;;;;;;;26.10;16.73;;;;;;;;;;4935466;28;20281;-37
2022/10/29 12:54:00;;;;;;;25.97;14.93;;;;;;;;;;4935479;28;20514;-36
2022/10/29 12:56:27;;;;;;;23.17;13.83;;;;;;;;;;4924019;28;20190;-37
2022/10/29 12:58:58;;;;;;;21.17;11.63;;;;;;;;;;4923487;28;20219;-36
2022/10/29 13:01:27;;;;;;;19.07;12.07;;;;;;;;;;4924001;28;20195;-36
2022/10/29 13:03:53;;;;;;;22.87;10.43;;;;;;;;;;4922899;28;20188;-37
2022/10/29 13:06:38;;;;;;;23.40;13.00;;;;;;;;;;4928374;28;20629;-37
2022/10/29 13:09:19;;;;;;;25.13;13.40;;;;;;;;;;4928644;28;20782;-35
2022/10/29 13:11:51;;;;;;;22.87;14.90;;;;;;;;;;4928338;28;20722;-36
2022/10/29 13:14:21;;;;;;;24.43;15.00;;;;;;;;;;4931309;28;20572;-36
2022/10/29 13:16:49;;;;;;;29.20;16.70;;;;;;;;;;4929707;28;20596;-36
2022/10/29 13:19:17;;;;;;;28.47;16.70;;;;;;;;;;4934754;28;20465;-37
2022/10/29 13:22:02;;;;;;;35.83;16.30;;;;;;;;;;4942493;28;20221;-36
2022/10/29 13:24:28;;;;;;;21.33;11.60;;;;;;;;;;4942924;28;20739;-36
2022/10/29 13:26:55;;;;;;;28.60;15.20;;;;;;;;;;4940138;28;20828;-36
2022/10/29 13:29:40;;;;;;;26.23;16.10;;;;;;;;;;4941550;28;20702;-36
2022/10/29 13:32:06;;;;;;;31.57;17.97;;;;;;;;;;4945155;28;20179;-36
2022/10/29 13:34:51;;;;;;;33.30;17.93;;;;;;;;;;4939573;28;20477;-36
2022/10/29 13:37:36;;;;;;;25.40;15.10;;;;;;;;;;4941145;28;20206;-37
2022/10/29 13:40:21;;;;;;;21.10;12.77;;;;;;;;;;4945929;28;20510;-37
2022/10/29 13:42:53;;;;;;;26.97;14.87;;;;;;;;;;4939997;28;20665;-37
2022/10/29 13:45:19;;;;;;;27.43;15.20;;;;;;;;;;4940886;28;20186;-37
2022/10/29 13:47:46;;;;;;;23.47;13.47;;;;;;;;;;4941702;28;20175;-37
2022/10/29 13:50:15;;;;;;;24.67;13.63;;;;;;;;;;4942078;28;20588;-37
2022/10/29 13:52:41;;;;;;;30.83;16.27;;;;;;;;;;4943288;28;20600;-37
2022/10/29 13:55:08;;;;;;;31.23;17.80;;;;;;;;;;4941029;28;20338;-36
2022/10/29 13:57:37;;;;;;;26.60;15.73;;;;;;;;;;4945668;28;20289;-36
2022/10/29 14:00:10;;;;;;;24.97;14.73;;;;;;;;;;4930520;28;20758;-36
2022/10/29 14:02:39;;;;;;;25.00;15.50;;;;;;;;;;4925581;28;20942;-37
2022/10/29 14:05:14;;;;;;;23.03;14.40;;;;;;;;;;4928170;28;20179;-37
2022/10/29 14:07:42;;;;;;;21.97;14.13;;;;;;;;;;4925807;28;20179;-37
2022/10/29 14:10:16;;;;;;;25.33;15.17;;;;;;;;;;4929203;28;20587;-36
2022/10/29 14:12:44;;;;;;;25.27;13.77;;;;;;;;;;4934664;28;20183;-37
2022/10/29 14:15:12;;;;;;;25.53;14.67;;;;;;;;;;4935466;28;20731;-37
2022/10/29 14:17:39;;;;;;;25.43;15.37;;;;;;;;;;4930789;28;20193;-37
2022/10/29 14:20:05;;;;;;;23.43;14.93;;;;;;;;;;4925909;28;20198;-37
2022/10/29 14:22:35;;;;;;;23.53;14.10;;;;;;;;;;4925430;28;21001;-37
2022/10/29 14:25:03;;;;;;;24.70;15.43;;;;;;;;;;4926586;28;20289;-37
2022/10/29 14:27:29;;;;;;;26.20;15.80;;;;;;;;;;4928842;28;20313;-37
2022/10/29 14:30:12;;;;;;;24.10;15.07;;;;;;;;;;4933950;28;20770;-36